createdAt,value
2022-12-12T00:01:28.455Z,83.65
2022-12-12T00:03:56.234Z,83.39
2022-12-12T00:06:26.077Z,83.07
2022-12-12T00:08:54.705Z,83.40
2022-12-12T00:11:24.065Z,83.29
2022-12-12T00:13:53.832Z,83.12
2022-12-12T00:16:22.654Z,83.24
2022-12-12T00:18:50.802Z,83.33
2022-12-12T00:21:23.764Z,83.40
2022-12-12T00:23:52.523Z,83.37
2022-12-12T00:26:25.098Z,82.92
2022-12-12T00:28:52.888Z,82.92
2022-12-12T00:31:20.793Z,83.07
2022-12-12T00:33:49.774Z,83.28
2022-12-12T00:36:22.111Z,83.27
2022-12-12T00:38:50.980Z,82.81
2022-12-12T00:41:19.408Z,83.00
2022-12-12T00:43:47.605Z,83.27
2022-12-12T00:46:18.913Z,83.41
2022-12-12T00:48:46.950Z,83.08
2022-12-12T00:51:18.792Z,83.27
2022-12-12T00:53:48.128Z,83.33
2022-12-12T00:56:18.356Z,83.15
2022-12-12T00:58:46.535Z,82.84
2022-12-12T01:01:18.739Z,83.07
2022-12-12T01:03:47.042Z,83.19
2022-12-12T01:06:15.032Z,83.29
2022-12-12T01:08:43.149Z,83.21
2022-12-12T01:11:13.244Z,83.26
2022-12-12T01:13:43.515Z,83.31
2022-12-12T01:16:12.313Z,82.92
2022-12-12T01:18:40.910Z,82.50
2022-12-12T01:21:12.345Z,82.24
2022-12-12T01:23:42.123Z,82.13
2022-12-12T01:26:14.661Z,82.36
2022-12-12T01:28:43.165Z,82.82
2022-12-12T01:31:11.625Z,82.86
2022-12-12T01:33:43.167Z,82.78
2022-12-12T01:36:13.270Z,82.66
2022-12-12T01:38:40.933Z,82.86
2022-12-12T01:41:08.507Z,82.93
2022-12-12T01:43:36.321Z,82.93
2022-12-12T01:46:26.059Z,83.10
2022-12-12T01:48:59.205Z,83.10
2022-12-12T01:51:30.016Z,83.03
2022-12-12T01:54:05.621Z,83.13
2022-12-12T01:56:34.664Z,83.10
2022-12-12T01:59:05.549Z,83.04
2022-12-12T02:01:33.765Z,82.77
2022-12-12T02:04:02.506Z,82.61
2022-12-12T02:06:31.157Z,82.58
2022-12-12T02:09:04.076Z,82.65
2022-12-12T02:11:35.053Z,82.73
2022-12-12T02:14:02.990Z,82.72
2022-12-12T02:16:50.423Z,82.70
2022-12-12T02:19:32.579Z,82.77
2022-12-12T02:22:40.730Z,82.83
2022-12-12T02:25:59.334Z,82.68
2022-12-12T02:29:06.330Z,82.75
2022-12-12T02:31:52.099Z,82.69
2022-12-12T02:34:42.824Z,82.21
2022-12-12T02:37:21.710Z,81.86
2022-12-12T02:40:20.887Z,82.07
2022-12-12T02:43:03.157Z,81.95
2022-12-12T02:45:57.828Z,81.99
2022-12-12T02:48:52.176Z,81.73
2022-12-12T02:51:21.450Z,81.70
2022-12-12T02:53:49.019Z,81.87
2022-12-12T02:56:54.477Z,81.77
2022-12-12T02:59:39.090Z,81.96
2022-12-12T03:02:55.382Z,82.08
2022-12-12T03:06:02.999Z,82.04
2022-12-12T03:08:56.969Z,82.08
2022-12-12T03:12:17.396Z,82.04
2022-12-12T03:15:07.348Z,82.09
2022-12-12T03:17:46.889Z,82.07
2022-12-12T03:20:35.647Z,82.17
2022-12-12T03:23:17.975Z,81.78
2022-12-12T03:25:51.273Z,81.88
2022-12-12T03:28:38.680Z,82.08
2022-12-12T03:31:10.445Z,82.08
2022-12-12T03:33:52.503Z,82.12
2022-12-12T03:36:27.972Z,82.10
2022-12-12T03:39:19.386Z,82.14
2022-12-12T03:41:55.233Z,82.07
2022-12-12T03:44:36.822Z,82.18
2022-12-12T03:47:07.536Z,82.25
2022-12-12T03:49:58.281Z,82.34
2022-12-12T03:52:34.422Z,82.39
2022-12-12T03:55:11.059Z,82.35
2022-12-12T03:57:53.351Z,82.28
2022-12-12T04:00:21.231Z,82.08
2022-12-12T04:03:10.695Z,82.08
2022-12-12T04:06:19.468Z,82.16
2022-12-12T04:09:06.670Z,81.96
2022-12-12T04:12:10.373Z,82.06
2022-12-12T04:15:28.043Z,82.10
2022-12-12T04:18:33.826Z,82.03
2022-12-12T04:25:02.604Z,82.02
2022-12-12T04:27:53.060Z,82.13
2022-12-12T04:30:21.359Z,82.17
2022-12-12T04:33:09.479Z,82.25
2022-12-12T04:35:41.869Z,82.17
2022-12-12T04:38:15.090Z,82.32
2022-12-12T04:40:48.367Z,82.24
2022-12-12T04:43:25.083Z,82.13
2022-12-12T04:46:12.393Z,81.93
2022-12-12T04:48:54.065Z,81.94
2022-12-12T04:51:38.220Z,82.10
2022-12-12T04:54:15.948Z,82.13
2022-12-12T04:56:52.821Z,82.11
2022-12-12T04:59:21.321Z,81.89
2022-12-12T05:01:57.367Z,81.74
2022-12-12T05:04:33.228Z,81.27
2022-12-12T05:07:06.781Z,81.47
2022-12-12T05:09:36.036Z,81.35
2022-12-12T05:12:03.974Z,81.19
2022-12-12T05:14:32.336Z,81.21
2022-12-12T05:17:05.221Z,81.36
2022-12-12T05:19:32.891Z,81.64
2022-12-12T05:22:00.936Z,81.81
2022-12-12T05:24:30.780Z,81.77
2022-12-12T05:26:59.809Z,81.75
2022-12-12T05:29:27.956Z,81.76
2022-12-12T05:31:56.192Z,81.72
2022-12-12T05:34:24.220Z,81.83
2022-12-12T05:36:53.645Z,81.91
2022-12-12T05:39:21.728Z,81.74
2022-12-12T05:41:51.162Z,81.70
2022-12-12T05:44:19.018Z,81.88
2022-12-12T05:46:47.262Z,81.88
2022-12-12T05:49:20.674Z,81.62
2022-12-12T05:51:48.631Z,81.45
2022-12-12T05:54:16.632Z,81.62
2022-12-12T05:56:46.354Z,81.74
2022-12-12T05:59:16.107Z,81.83
2022-12-12T06:01:44.808Z,82.15
2022-12-12T06:04:14.028Z,82.23
2022-12-12T06:06:42.507Z,82.42
2022-12-12T06:09:12.001Z,82.51
2022-12-12T06:11:48.324Z,82.54
2022-12-12T06:14:22.527Z,82.61
2022-12-12T06:16:55.433Z,82.58
2022-12-12T06:19:23.540Z,82.61
2022-12-12T06:21:53.335Z,82.53
2022-12-12T06:24:25.732Z,82.65
2022-12-12T06:26:53.652Z,82.74
2022-12-12T06:29:21.972Z,82.85
2022-12-12T06:31:50.680Z,82.92
2022-12-12T06:34:19.983Z,82.93
2022-12-12T06:36:48.015Z,83.01
2022-12-12T06:39:17.937Z,82.97
2022-12-12T06:41:45.907Z,83.02
2022-12-12T06:44:14.554Z,83.17
2022-12-12T06:46:43.632Z,83.14
2022-12-12T06:49:12.221Z,83.10
2022-12-12T06:51:44.642Z,83.19
2022-12-12T06:54:15.542Z,83.39
2022-12-12T06:56:48.195Z,83.28
2022-12-12T06:59:17.472Z,83.37
2022-12-12T07:01:46.576Z,83.56
2022-12-12T07:04:17.912Z,83.60
2022-12-12T07:06:47.043Z,83.57
2022-12-12T07:09:18.662Z,83.68
2022-12-12T07:11:46.850Z,83.90
2022-12-12T07:14:14.555Z,83.88
2022-12-12T07:16:44.240Z,84.04
2022-12-12T07:19:12.272Z,84.01
2022-12-12T07:21:40.171Z,83.94
2022-12-12T07:24:08.265Z,84.09
2022-12-12T07:26:35.901Z,84.26
2022-12-12T07:29:04.831Z,84.22
2022-12-12T07:31:35.709Z,84.08
2022-12-12T07:34:03.717Z,84.13
2022-12-12T07:36:31.553Z,84.30
2022-12-12T07:38:59.569Z,84.21
2022-12-12T07:41:27.601Z,84.09
2022-12-12T07:44:01.285Z,84.17
2022-12-12T07:46:32.582Z,84.42
2022-12-12T07:49:00.749Z,84.40
2022-12-12T07:51:33.345Z,84.34
2022-12-12T07:54:02.399Z,84.40
2022-12-12T07:56:31.694Z,84.37
2022-12-12T07:59:00.985Z,84.49
2022-12-12T08:01:30.065Z,84.59
2022-12-12T08:03:58.350Z,84.51
2022-12-12T08:06:29.823Z,84.59
2022-12-12T08:09:00.278Z,84.54
2022-12-12T08:11:28.018Z,84.58
2022-12-12T08:13:56.300Z,84.67
2022-12-12T08:16:31.170Z,84.72
2022-12-12T08:18:59.079Z,84.79
2022-12-12T08:21:28.122Z,84.78
2022-12-12T08:24:01.745Z,84.74
2022-12-12T08:26:32.086Z,84.77
2022-12-12T08:29:00.095Z,84.81
2022-12-12T08:31:30.003Z,84.85
2022-12-12T08:34:01.829Z,84.94
2022-12-12T08:36:32.910Z,84.83
2022-12-12T08:39:08.356Z,84.85
2022-12-12T08:41:39.927Z,84.99
2022-12-12T08:44:10.750Z,85.03
2022-12-12T08:46:39.573Z,85.07
2022-12-12T08:49:09.231Z,85.19
2022-12-12T08:51:41.610Z,85.28
2022-12-12T08:54:12.672Z,85.24
2022-12-12T08:56:41.480Z,85.33
2022-12-12T08:59:09.602Z,85.25
2022-12-12T09:01:37.890Z,85.14
2022-12-12T09:04:05.768Z,84.86
2022-12-12T09:06:33.840Z,84.83
2022-12-12T09:09:02.184Z,84.88
2022-12-12T09:11:29.750Z,84.94
2022-12-12T09:13:58.916Z,85.01
2022-12-12T09:16:28.660Z,85.04
2022-12-12T09:18:58.917Z,85.07
2022-12-12T09:21:30.101Z,85.01
2022-12-12T09:23:58.407Z,84.80
2022-12-12T09:26:26.206Z,84.97
2022-12-12T09:28:54.220Z,84.86
2022-12-12T09:31:22.176Z,84.88
2022-12-12T09:33:52.180Z,84.87
2022-12-12T09:36:20.535Z,84.94
2022-12-12T09:38:48.298Z,85.04
2022-12-12T09:41:19.546Z,85.08
2022-12-12T09:44:04.977Z,85.35
2022-12-12T09:46:43.131Z,85.23
2022-12-12T09:49:43.290Z,85.38
2022-12-12T09:52:10.379Z,85.35
2022-12-12T09:54:38.174Z,85.43
2022-12-12T09:57:22.065Z,85.66
2022-12-12T10:00:09.136Z,85.59
2022-12-12T10:03:26.190Z,85.27
2022-12-12T10:09:04.584Z,85.01
2022-12-12T10:11:55.400Z,85.01
2022-12-12T10:14:52.501Z,85.31
2022-12-12T10:17:34.826Z,84.95
2022-12-12T10:20:26.212Z,84.89
2022-12-12T10:23:33.500Z,84.72
2022-12-12T10:26:18.902Z,84.95
2022-12-12T10:28:53.410Z,85.16
2022-12-12T10:31:47.494Z,85.10
2022-12-12T10:34:46.095Z,85.05
2022-12-12T10:37:44.101Z,85.08
2022-12-12T10:40:52.826Z,84.96
2022-12-12T10:43:44.600Z,85.01
2022-12-12T10:46:28.813Z,85.05
2022-12-12T10:48:58.040Z,85.11
2022-12-12T10:51:30.486Z,85.19
2022-12-12T10:53:58.455Z,85.17
2022-12-12T10:56:30.711Z,85.11
2022-12-12T10:59:08.649Z,85.04
2022-12-12T11:02:10.035Z,84.96
2022-12-12T11:08:03.869Z,84.96
2022-12-12T11:10:51.877Z,85.29
2022-12-12T11:13:57.045Z,85.42
2022-12-12T11:16:31.944Z,85.17
2022-12-12T11:19:19.418Z,85.37
2022-12-12T11:21:48.839Z,85.33
2022-12-12T11:24:29.094Z,85.61
2022-12-12T11:27:01.600Z,85.57
2022-12-12T11:29:44.717Z,85.43
2022-12-12T11:32:26.924Z,85.43
2022-12-12T11:35:02.063Z,85.56
2022-12-12T11:37:41.986Z,85.68
2022-12-12T11:40:26.779Z,85.66
2022-12-12T11:43:29.660Z,85.62
2022-12-12T11:46:02.816Z,85.65
2022-12-12T11:48:54.867Z,85.63
2022-12-12T11:51:44.589Z,85.32
2022-12-12T11:54:31.320Z,85.61
2022-12-12T11:57:06.512Z,85.45
2022-12-12T12:00:02.342Z,85.58
2022-12-12T12:03:03.594Z,85.82
2022-12-12T12:06:04.257Z,85.85
2022-12-12T12:09:21.915Z,85.66
2022-12-12T12:12:00.898Z,85.72
2022-12-12T12:14:52.337Z,85.71
2022-12-12T12:17:48.588Z,85.84
2022-12-12T12:20:44.015Z,85.87
2022-12-12T12:23:40.874Z,85.94
2022-12-12T12:26:10.896Z,85.94
2022-12-12T12:29:10.061Z,86.04
2022-12-12T12:31:58.507Z,86.00
2022-12-12T12:34:46.628Z,85.78
2022-12-12T12:37:50.219Z,85.58
2022-12-12T12:40:52.560Z,85.46
2022-12-12T12:43:51.865Z,85.43
2022-12-12T12:46:42.618Z,85.38
2022-12-12T12:49:30.505Z,85.29
2022-12-12T12:52:12.204Z,85.27
2022-12-12T12:54:42.533Z,85.11
2022-12-12T12:57:23.340Z,85.08
2022-12-12T12:59:56.167Z,85.08
2022-12-12T13:02:38.679Z,85.11
2022-12-12T13:05:20.688Z,84.81
2022-12-12T13:08:22.934Z,84.57
2022-12-12T13:10:58.898Z,84.75
2022-12-12T13:13:34.433Z,85.08
2022-12-12T13:16:18.651Z,84.87
2022-12-12T13:18:51.532Z,85.14
2022-12-12T13:21:33.912Z,85.31
2022-12-12T13:24:06.026Z,85.31
2022-12-12T13:26:44.917Z,85.26
2022-12-12T13:29:38.910Z,85.26
2022-12-12T13:32:30.406Z,85.07
2022-12-12T13:35:06.814Z,85.05
2022-12-12T13:37:48.139Z,84.99
2022-12-12T13:40:41.934Z,84.87
2022-12-12T13:43:43.782Z,84.92
2022-12-12T13:46:34.123Z,84.91
2022-12-12T13:49:15.877Z,84.98
2022-12-12T13:51:45.745Z,84.68
2022-12-12T13:54:18.932Z,84.67
2022-12-12T13:56:58.894Z,84.89
2022-12-12T13:59:30.306Z,84.78
2022-12-12T14:02:31.081Z,84.90
2022-12-12T14:05:12.873Z,84.94
2022-12-12T14:07:53.681Z,84.94
2022-12-12T14:10:29.972Z,84.93
2022-12-12T14:13:20.547Z,84.89
2022-12-12T14:15:56.043Z,84.83
2022-12-12T14:18:39.978Z,84.80
2022-12-12T14:21:14.699Z,84.82
2022-12-12T14:23:47.801Z,84.84
2022-12-12T14:26:33.228Z,84.80
2022-12-12T14:29:21.974Z,84.81
2022-12-12T14:32:08.597Z,84.85
2022-12-12T14:35:03.531Z,84.72
2022-12-12T14:38:11.900Z,84.73
2022-12-12T14:40:46.414Z,84.75
2022-12-12T14:43:38.039Z,84.83
2022-12-12T14:46:08.069Z,84.95
2022-12-12T14:48:36.763Z,84.90
2022-12-12T14:51:27.523Z,85.00
2022-12-12T14:53:55.143Z,84.97
2022-12-12T14:56:38.023Z,84.91
2022-12-12T14:59:19.982Z,84.86
2022-12-12T15:02:08.171Z,84.90
2022-12-12T15:04:38.660Z,84.93
2022-12-12T15:07:25.909Z,84.90
2022-12-12T15:09:53.749Z,84.91
2022-12-12T15:12:26.132Z,84.84
2022-12-12T15:14:58.477Z,84.90
2022-12-12T15:17:36.798Z,84.85
2022-12-12T15:20:15.389Z,84.67
2022-12-12T15:22:57.533Z,84.54
2022-12-12T15:25:30.132Z,84.67
2022-12-12T15:28:00.419Z,84.65
2022-12-12T15:30:39.665Z,84.60
2022-12-12T15:33:21.066Z,84.67
2022-12-12T15:35:57.876Z,84.66
2022-12-12T15:38:23.080Z,84.52
2022-12-12T15:40:54.328Z,84.55
2022-12-12T15:43:27.754Z,84.40
2022-12-12T15:46:06.365Z,84.48
2022-12-12T15:48:34.658Z,84.18
2022-12-12T15:51:06.719Z,84.13
2022-12-12T15:53:38.054Z,84.18
2022-12-12T15:56:13.282Z,84.13
2022-12-12T15:58:46.036Z,84.13
2022-12-12T16:01:21.345Z,84.12
2022-12-12T16:04:12.462Z,84.08
2022-12-12T16:06:45.527Z,84.16
2022-12-12T16:09:23.428Z,84.27
2022-12-12T16:11:55.028Z,84.33
2022-12-12T16:14:27.900Z,84.31
2022-12-12T16:17:22.969Z,84.29
2022-12-12T16:20:03.695Z,84.34
2022-12-12T16:22:47.583Z,84.30
2022-12-12T16:25:22.847Z,84.46
2022-12-12T16:28:11.101Z,84.23
2022-12-12T16:30:42.470Z,84.25
2022-12-12T16:33:33.772Z,84.26
2022-12-12T16:36:06.304Z,84.26
2022-12-12T16:38:35.215Z,84.32
2022-12-12T16:41:13.607Z,84.28
2022-12-12T16:43:41.692Z,84.29
2022-12-12T16:46:23.279Z,84.39
2022-12-12T16:48:54.289Z,84.48
2022-12-12T16:51:28.157Z,84.25
2022-12-12T16:53:57.841Z,83.92
2022-12-12T16:56:25.986Z,83.24
2022-12-12T16:58:55.615Z,82.57
2022-12-12T17:01:24.122Z,81.74
2022-12-12T17:03:52.282Z,80.99
2022-12-12T17:06:20.368Z,80.97
2022-12-12T17:08:47.999Z,81.40
2022-12-12T17:11:16.732Z,81.09
2022-12-12T17:13:47.749Z,80.49
2022-12-12T17:16:15.805Z,79.38
2022-12-12T17:18:43.449Z,79.87
2022-12-12T17:21:11.123Z,78.98
2022-12-12T17:23:40.149Z,78.90
2022-12-12T17:26:08.841Z,78.21
2022-12-12T17:28:38.281Z,78.66
2022-12-12T17:31:12.241Z,78.96
2022-12-12T17:33:49.727Z,79.01
2022-12-12T17:36:13.600Z,79.13
2022-12-12T17:38:43.202Z,79.25
2022-12-12T17:41:24.054Z,79.53
2022-12-12T17:43:55.839Z,79.81
2022-12-12T17:46:27.074Z,80.03
2022-12-12T17:49:00.639Z,80.00
2022-12-12T17:51:29.277Z,79.56
2022-12-12T17:53:59.294Z,79.79
2022-12-12T17:56:27.751Z,79.54
2022-12-12T17:58:55.776Z,78.66
2022-12-12T18:01:31.030Z,78.63
2022-12-12T18:03:59.580Z,77.51
2022-12-12T18:06:30.053Z,77.12
2022-12-12T18:09:00.344Z,77.24
2022-12-12T18:11:35.185Z,77.59
2022-12-12T18:14:07.348Z,76.73
2022-12-12T18:16:36.456Z,77.10
2022-12-12T18:19:04.957Z,76.20
2022-12-12T18:21:59.651Z,75.10
2022-12-12T18:24:05.732Z,75.62
2022-12-12T18:26:33.929Z,74.69
2022-12-12T18:29:07.304Z,74.23
2022-12-12T18:31:36.053Z,73.55
2022-12-12T18:34:05.180Z,74.20
2022-12-12T18:36:34.732Z,74.42
2022-12-12T18:39:06.389Z,74.47
2022-12-12T18:41:36.259Z,74.60
2022-12-12T18:44:07.589Z,74.50
2022-12-12T18:46:42.252Z,74.41
2022-12-12T18:49:06.822Z,73.33
2022-12-12T18:51:35.902Z,73.30
2022-12-12T18:54:12.752Z,72.75
2022-12-12T18:56:37.058Z,73.03
2022-12-12T18:59:04.687Z,73.21
2022-12-12T19:01:34.651Z,73.50
2022-12-12T19:04:11.393Z,73.44
2022-12-12T19:06:37.083Z,73.25
2022-12-12T19:09:18.894Z,73.28
2022-12-12T19:11:47.556Z,72.71
2022-12-12T19:14:16.412Z,73.17
2022-12-12T19:16:46.045Z,72.58
2022-12-12T19:19:14.843Z,72.93
2022-12-12T19:21:44.583Z,73.23
2022-12-12T19:24:13.688Z,71.01
2022-12-12T19:26:44.733Z,72.40
2022-12-12T19:29:16.205Z,73.07
2022-12-12T19:31:44.739Z,73.03
2022-12-12T19:34:15.269Z,73.32
2022-12-12T19:36:48.306Z,73.00
2022-12-12T19:39:16.589Z,72.83
2022-12-12T19:41:45.643Z,72.39
2022-12-12T19:44:14.303Z,72.73
2022-12-12T19:46:45.686Z,73.27
2022-12-12T19:49:16.173Z,73.03
2022-12-12T19:51:52.128Z,73.07
2022-12-12T19:54:22.196Z,73.03
2022-12-12T19:56:51.152Z,72.75
2022-12-12T19:59:20.234Z,72.95
2022-12-12T20:01:54.868Z,73.13
2022-12-12T20:04:29.609Z,73.30
2022-12-12T20:06:59.181Z,73.54
2022-12-12T20:09:29.394Z,73.76
2022-12-12T20:12:02.974Z,73.79
2022-12-12T20:14:34.275Z,73.67
2022-12-12T20:17:02.396Z,73.49
2022-12-12T20:19:31.547Z,73.67
2022-12-12T20:22:01.402Z,73.69
2022-12-12T20:24:29.628Z,73.55
2022-12-12T20:26:58.909Z,73.23
2022-12-12T20:29:27.551Z,73.05
2022-12-12T20:31:58.633Z,72.85
2022-12-12T20:34:27.769Z,72.72
2022-12-12T20:36:55.764Z,72.84
2022-12-12T20:39:26.012Z,72.86
2022-12-12T20:41:56.605Z,72.69
2022-12-12T20:44:28.582Z,72.75
2022-12-12T20:46:58.251Z,73.09
2022-12-12T20:49:32.567Z,73.20
2022-12-12T20:52:00.685Z,73.23
2022-12-12T20:54:31.298Z,73.22
2022-12-12T20:57:01.511Z,73.39
2022-12-12T20:59:29.614Z,73.53
2022-12-12T21:01:57.758Z,73.60
2022-12-12T21:04:25.773Z,73.67
2022-12-12T21:06:54.290Z,73.73
2022-12-12T21:09:25.985Z,73.83
2022-12-12T21:11:57.482Z,73.84
2022-12-12T21:14:31.010Z,73.90
2022-12-12T21:16:59.009Z,73.81
2022-12-12T21:19:26.553Z,73.64
2022-12-12T21:21:56.857Z,73.84
2022-12-12T21:24:24.567Z,73.75
2022-12-12T21:26:52.256Z,73.65
2022-12-12T21:29:20.106Z,73.72
2022-12-12T21:31:51.664Z,73.82
2022-12-12T21:34:19.664Z,74.22
2022-12-12T21:36:53.573Z,74.43
2022-12-12T21:39:26.227Z,74.49
2022-12-12T21:41:56.217Z,74.55
2022-12-12T21:44:24.997Z,74.54
2022-12-12T21:46:54.471Z,74.54
2022-12-12T21:49:28.153Z,74.62
2022-12-12T21:52:08.741Z,74.32
2022-12-12T21:54:36.736Z,74.16
2022-12-12T21:57:07.049Z,74.03
2022-12-12T21:59:36.652Z,74.10
2022-12-12T22:02:07.339Z,74.58
2022-12-12T22:04:35.994Z,74.98
2022-12-12T22:07:04.113Z,75.09
2022-12-12T22:09:31.933Z,75.27
2022-12-12T22:12:03.208Z,75.56
2022-12-12T22:14:30.958Z,75.38
2022-12-12T22:16:59.644Z,75.14
2022-12-12T22:19:28.055Z,75.58
2022-12-12T22:21:56.358Z,75.61
2022-12-12T22:24:25.540Z,75.98
2022-12-12T22:26:53.839Z,76.04
2022-12-12T22:29:22.137Z,75.59
2022-12-12T22:31:51.534Z,75.45
2022-12-12T22:34:23.233Z,75.59
2022-12-12T22:36:52.793Z,75.56
2022-12-12T22:39:25.009Z,75.15
2022-12-12T22:41:55.707Z,74.80
2022-12-12T22:44:26.163Z,74.66
2022-12-12T22:46:56.568Z,74.42
2022-12-12T22:49:26.175Z,74.60
2022-12-12T22:52:06.674Z,74.92
2022-12-12T22:54:41.344Z,74.92
2022-12-12T22:57:10.586Z,74.76
2022-12-12T22:59:38.304Z,74.96
2022-12-12T23:02:06.048Z,74.95
2022-12-12T23:04:34.656Z,74.95
2022-12-12T23:07:04.957Z,75.09
2022-12-12T23:09:32.949Z,75.10
2022-12-12T23:12:00.796Z,75.03
2022-12-12T23:14:28.685Z,75.29
2022-12-12T23:16:56.665Z,75.57
2022-12-12T23:19:27.923Z,75.72
2022-12-12T23:21:55.777Z,75.82
2022-12-12T23:24:23.843Z,75.80
2022-12-12T23:26:51.858Z,75.71
2022-12-12T23:29:19.847Z,75.84
2022-12-12T23:31:47.581Z,75.93
2022-12-12T23:34:22.159Z,75.97
2022-12-12T23:36:53.738Z,75.87
2022-12-12T23:39:22.846Z,75.97
2022-12-12T23:41:50.919Z,75.82
2022-12-12T23:44:20.887Z,75.93
2022-12-12T23:46:49.285Z,76.08
2022-12-12T23:49:22.381Z,76.24
2022-12-12T23:51:56.862Z,76.35
2022-12-12T23:54:30.378Z,76.43
2022-12-12T23:56:59.109Z,76.48
2022-12-12T23:59:28.043Z,76.49
